sensor_id;sensor_type;location;lat;lon;timestamp;P1;durP1;ratioP1;P2;durP2;ratioP2
79076;SDS011;68477;42.698;23.342;2023-07-13T00:00:24;11.38;;;5.75;;
79076;SDS011;68477;42.698;23.342;2023-07-13T00:02:50;9.27;;;5.60;;
79076;SDS011;68477;42.698;23.342;2023-07-13T00:05:19;10.52;;;5.53;;
79076;SDS011;68477;42.698;23.342;2023-07-13T00:07:45;9.73;;;5.32;;
79076;SDS011;68477;42.698;23.342;2023-07-13T00:10:11;8.95;;;5.35;;
79076;SDS011;68477;42.698;23.342;2023-07-13T00:12:37;9.93;;;5.65;;
79076;SDS011;68477;42.698;23.342;2023-07-13T00:15:05;13.20;;;5.88;;
79076;SDS011;68477;42.698;23.342;2023-07-13T00:17:34;11.68;;;6.07;;
79076;SDS011;68477;42.698;23.342;2023-07-13T00:20:00;12.55;;;5.70;;
79076;SDS011;68477;42.698;23.342;2023-07-13T00:22:25;9.35;;;5.40;;
79076;SDS011;68477;42.698;23.342;2023-07-13T00:24:52;17.17;;;6.60;;
79076;SDS011;68477;42.698;23.342;2023-07-13T00:27:20;12.02;;;6.70;;
79076;SDS011;68477;42.698;23.342;2023-07-13T00:29:46;8.88;;;6.05;;
79076;SDS011;68477;42.698;23.342;2023-07-13T00:32:11;17.10;;;6.65;;
79076;SDS011;68477;42.698;23.342;2023-07-13T00:34:37;9.60;;;6.22;;
79076;SDS011;68477;42.698;23.342;2023-07-13T00:37:04;10.18;;;6.20;;
79076;SDS011;68477;42.698;23.342;2023-07-13T00:39:31;13.00;;;8.45;;
79076;SDS011;68477;42.698;23.342;2023-07-13T00:41:57;12.82;;;6.28;;
79076;SDS011;68477;42.698;23.342;2023-07-13T00:44:23;9.88;;;6.00;;
79076;SDS011;68477;42.698;23.342;2023-07-13T00:46:49;10.63;;;6.50;;
79076;SDS011;68477;42.698;23.342;2023-07-13T00:49:15;9.45;;;6.20;;
79076;SDS011;68477;42.698;23.342;2023-07-13T00:51:48;12.00;;;6.60;;
79076;SDS011;68477;42.698;23.342;2023-07-13T00:54:20;11.02;;;7.13;;
79076;SDS011;68477;42.698;23.342;2023-07-13T00:56:50;11.43;;;7.15;;
79076;SDS011;68477;42.698;23.342;2023-07-13T00:59:17;9.80;;;6.85;;
79076;SDS011;68477;42.698;23.342;2023-07-13T01:01:46;13.75;;;6.57;;
79076;SDS011;68477;42.698;23.342;2023-07-13T01:04:13;10.10;;;6.53;;
79076;SDS011;68477;42.698;23.342;2023-07-13T01:06:39;8.20;;;6.22;;
79076;SDS011;68477;42.698;23.342;2023-07-13T01:09:06;11.30;;;6.40;;
79076;SDS011;68477;42.698;23.342;2023-07-13T01:11:33;8.68;;;6.78;;
79076;SDS011;68477;42.698;23.342;2023-07-13T01:13:59;9.80;;;6.53;;
79076;SDS011;68477;42.698;23.342;2023-07-13T01:16:30;10.15;;;6.88;;
79076;SDS011;68477;42.698;23.342;2023-07-13T01:18:57;8.38;;;6.85;;
79076;SDS011;68477;42.698;23.342;2023-07-13T01:21:24;10.15;;;6.03;;
79076;SDS011;68477;42.698;23.342;2023-07-13T01:23:50;17.60;;;7.38;;
79076;SDS011;68477;42.698;23.342;2023-07-13T01:26:16;16.77;;;6.60;;
79076;SDS011;68477;42.698;23.342;2023-07-13T01:28:41;13.77;;;6.63;;
79076;SDS011;68477;42.698;23.342;2023-07-13T01:31:07;13.23;;;7.10;;
79076;SDS011;68477;42.698;23.342;2023-07-13T01:33:34;13.07;;;7.35;;
79076;SDS011;68477;42.698;23.342;2023-07-13T01:36:01;10.63;;;6.88;;
79076;SDS011;68477;42.698;23.342;2023-07-13T01:38:27;13.00;;;7.13;;
79076;SDS011;68477;42.698;23.342;2023-07-13T01:40:53;11.60;;;7.40;;
79076;SDS011;68477;42.698;23.342;2023-07-13T01:43:19;11.45;;;6.85;;
79076;SDS011;68477;42.698;23.342;2023-07-13T01:45:45;11.02;;;6.90;;
79076;SDS011;68477;42.698;23.342;2023-07-13T01:48:12;10.70;;;6.60;;
79076;SDS011;68477;42.698;23.342;2023-07-13T01:50:38;10.95;;;7.38;;
79076;SDS011;68477;42.698;23.342;2023-07-13T01:53:03;10.63;;;7.03;;
79076;SDS011;68477;42.698;23.342;2023-07-13T01:55:29;10.50;;;7.15;;
79076;SDS011;68477;42.698;23.342;2023-07-13T01:57:55;9.63;;;7.13;;
79076;SDS011;68477;42.698;23.342;2023-07-13T02:00:20;10.70;;;7.60;;
79076;SDS011;68477;42.698;23.342;2023-07-13T02:02:46;11.43;;;7.72;;
79076;SDS011;68477;42.698;23.342;2023-07-13T02:05:11;10.80;;;7.22;;
79076;SDS011;68477;42.698;23.342;2023-07-13T02:07:38;12.57;;;7.63;;
79076;SDS011;68477;42.698;23.342;2023-07-13T02:10:04;12.50;;;7.57;;
79076;SDS011;68477;42.698;23.342;2023-07-13T02:12:31;11.60;;;7.15;;
79076;SDS011;68477;42.698;23.342;2023-07-13T02:14:56;10.02;;;7.07;;
79076;SDS011;68477;42.698;23.342;2023-07-13T02:17:21;9.63;;;7.07;;
79076;SDS011;68477;42.698;23.342;2023-07-13T02:19:47;10.93;;;6.95;;
79076;SDS011;68477;42.698;23.342;2023-07-13T02:22:12;11.70;;;6.80;;
79076;SDS011;68477;42.698;23.342;2023-07-13T02:24:38;13.65;;;7.88;;
79076;SDS011;68477;42.698;23.342;2023-07-13T02:27:03;11.57;;;7.05;;
79076;SDS011;68477;42.698;23.342;2023-07-13T02:29:29;12.80;;;8.35;;
79076;SDS011;68477;42.698;23.342;2023-07-13T02:31:54;16.35;;;7.38;;
79076;SDS011;68477;42.698;23.342;2023-07-13T02:34:20;10.85;;;7.40;;
79076;SDS011;68477;42.698;23.342;2023-07-13T02:36:45;12.23;;;8.60;;
79076;SDS011;68477;42.698;23.342;2023-07-13T02:39:11;11.88;;;6.97;;
79076;SDS011;68477;42.698;23.342;2023-07-13T02:41:37;12.82;;;7.97;;
79076;SDS011;68477;42.698;23.342;2023-07-13T02:44:03;14.60;;;7.93;;
79076;SDS011;68477;42.698;23.342;2023-07-13T02:46:32;11.55;;;6.88;;
79076;SDS011;68477;42.698;23.342;2023-07-13T02:48:59;11.23;;;7.18;;
79076;SDS011;68477;42.698;23.342;2023-07-13T02:51:25;11.65;;;7.28;;
79076;SDS011;68477;42.698;23.342;2023-07-13T02:53:51;9.38;;;6.53;;
79076;SDS011;68477;42.698;23.342;2023-07-13T02:56:18;9.60;;;7.15;;
79076;SDS011;68477;42.698;23.342;2023-07-13T02:58:47;12.60;;;7.85;;
79076;SDS011;68477;42.698;23.342;2023-07-13T03:01:12;11.80;;;7.25;;
79076;SDS011;68477;42.698;23.342;2023-07-13T03:03:38;11.80;;;6.97;;
79076;SDS011;68477;42.698;23.342;2023-07-13T03:06:04;14.15;;;7.28;;
79076;SDS011;68477;42.698;23.342;2023-07-13T03:08:32;9.90;;;7.38;;
79076;SDS011;68477;42.698;23.342;2023-07-13T03:11:01;12.85;;;7.05;;
79076;SDS011;68477;42.698;23.342;2023-07-13T03:13:32;12.73;;;7.70;;
79076;SDS011;68477;42.698;23.342;2023-07-13T03:15:57;12.50;;;7.50;;
79076;SDS011;68477;42.698;23.342;2023-07-13T03:18:23;10.73;;;7.53;;
79076;SDS011;68477;42.698;23.342;2023-07-13T03:20:52;16.13;;;7.88;;
79076;SDS011;68477;42.698;23.342;2023-07-13T03:23:18;11.73;;;7.80;;
79076;SDS011;68477;42.698;23.342;2023-07-13T03:25:44;9.38;;;7.05;;
79076;SDS011;68477;42.698;23.342;2023-07-13T03:28:10;13.30;;;7.55;;
79076;SDS011;68477;42.698;23.342;2023-07-13T03:30:36;9.60;;;7.20;;
79076;SDS011;68477;42.698;23.342;2023-07-13T03:33:03;9.25;;;7.43;;
79076;SDS011;68477;42.698;23.342;2023-07-13T03:35:28;17.02;;;8.57;;
79076;SDS011;68477;42.698;23.342;2023-07-13T03:37:54;9.98;;;7.18;;
79076;SDS011;68477;42.698;23.342;2023-07-13T03:40:19;10.13;;;7.93;;
79076;SDS011;68477;42.698;23.342;2023-07-13T03:42:45;11.25;;;8.50;;
79076;SDS011;68477;42.698;23.342;2023-07-13T03:45:10;14.70;;;8.23;;
79076;SDS011;68477;42.698;23.342;2023-07-13T03:47:36;12.88;;;7.82;;
79076;SDS011;68477;42.698;23.342;2023-07-13T03:50:01;12.23;;;7.93;;
79076;SDS011;68477;42.698;23.342;2023-07-13T03:52:27;10.27;;;7.03;;
79076;SDS011;68477;42.698;23.342;2023-07-13T03:54:53;11.63;;;7.70;;
79076;SDS011;68477;42.698;23.342;2023-07-13T03:57:18;10.55;;;7.25;;
79076;SDS011;68477;42.698;23.342;2023-07-13T03:59:44;11.82;;;7.00;;
79076;SDS011;68477;42.698;23.342;2023-07-13T04:02:09;14.27;;;7.28;;
79076;SDS011;68477;42.698;23.342;2023-07-13T04:04:35;12.43;;;7.30;;
79076;SDS011;68477;42.698;23.342;2023-07-13T04:07:00;9.55;;;7.03;;
79076;SDS011;68477;42.698;23.342;2023-07-13T04:09:27;10.88;;;7.43;;
79076;SDS011;68477;42.698;23.342;2023-07-13T04:11:53;12.68;;;8.00;;
79076;SDS011;68477;42.698;23.342;2023-07-13T04:14:18;16.15;;;7.72;;
79076;SDS011;68477;42.698;23.342;2023-07-13T04:16:44;13.38;;;7.40;;
79076;SDS011;68477;42.698;23.342;2023-07-13T04:19:09;10.57;;;7.65;;
79076;SDS011;68477;42.698;23.342;2023-07-13T04:21:35;11.27;;;7.50;;
79076;SDS011;68477;42.698;23.342;2023-07-13T04:24:01;12.05;;;7.97;;
79076;SDS011;68477;42.698;23.342;2023-07-13T04:26:28;12.70;;;7.72;;
79076;SDS011;68477;42.698;23.342;2023-07-13T04:28:54;13.68;;;8.50;;
79076;SDS011;68477;42.698;23.342;2023-07-13T04:31:20;11.88;;;8.13;;
79076;SDS011;68477;42.698;23.342;2023-07-13T04:33:45;11.90;;;8.40;;
79076;SDS011;68477;42.698;23.342;2023-07-13T04:36:11;13.20;;;8.48;;
79076;SDS011;68477;42.698;23.342;2023-07-13T04:38:37;12.07;;;8.32;;
79076;SDS011;68477;42.698;23.342;2023-07-13T04:41:03;12.93;;;8.32;;
79076;SDS011;68477;42.698;23.342;2023-07-13T04:43:31;15.40;;;8.45;;
79076;SDS011;68477;42.698;23.342;2023-07-13T04:46:02;12.07;;;8.00;;
79076;SDS011;68477;42.698;23.342;2023-07-13T04:48:32;13.05;;;8.23;;
79076;SDS011;68477;42.698;23.342;2023-07-13T04:50:58;13.20;;;9.30;;
79076;SDS011;68477;42.698;23.342;2023-07-13T04:53:24;14.43;;;8.50;;
79076;SDS011;68477;42.698;23.342;2023-07-13T04:55:50;14.20;;;9.20;;
79076;SDS011;68477;42.698;23.342;2023-07-13T04:58:15;16.52;;;9.82;;
79076;SDS011;68477;42.698;23.342;2023-07-13T05:00:42;16.15;;;9.35;;
79076;SDS011;68477;42.698;23.342;2023-07-13T05:03:07;15.50;;;9.25;;
79076;SDS011;68477;42.698;23.342;2023-07-13T05:05:32;14.60;;;9.48;;
79076;SDS011;68477;42.698;23.342;2023-07-13T05:07:59;17.98;;;8.77;;
79076;SDS011;68477;42.698;23.342;2023-07-13T05:10:24;13.52;;;8.48;;
79076;SDS011;68477;42.698;23.342;2023-07-13T05:12:50;13.07;;;8.63;;
79076;SDS011;68477;42.698;23.342;2023-07-13T05:15:15;15.30;;;8.68;;
79076;SDS011;68477;42.698;23.342;2023-07-13T05:17:45;19.75;;;9.00;;
79076;SDS011;68477;42.698;23.342;2023-07-13T05:20:11;17.75;;;9.68;;
79076;SDS011;68477;42.698;23.342;2023-07-13T05:22:37;21.60;;;9.32;;
79076;SDS011;68477;42.698;23.342;2023-07-13T05:25:06;15.82;;;9.05;;
79076;SDS011;68477;42.698;23.342;2023-07-13T05:27:36;17.08;;;9.77;;
79076;SDS011;68477;42.698;23.342;2023-07-13T05:30:02;17.42;;;9.45;;
79076;SDS011;68477;42.698;23.342;2023-07-13T05:32:28;16.42;;;9.57;;
79076;SDS011;68477;42.698;23.342;2023-07-13T05:34:54;18.15;;;10.35;;
79076;SDS011;68477;42.698;23.342;2023-07-13T05:37:19;16.58;;;9.68;;
79076;SDS011;68477;42.698;23.342;2023-07-13T05:39:44;19.55;;;9.32;;
79076;SDS011;68477;42.698;23.342;2023-07-13T05:42:10;19.05;;;10.00;;
79076;SDS011;68477;42.698;23.342;2023-07-13T05:44:35;22.52;;;9.75;;
79076;SDS011;68477;42.698;23.342;2023-07-13T05:47:01;16.75;;;9.63;;
79076;SDS011;68477;42.698;23.342;2023-07-13T05:49:26;16.45;;;9.80;;
79076;SDS011;68477;42.698;23.342;2023-07-13T05:51:52;18.25;;;10.15;;
79076;SDS011;68477;42.698;23.342;2023-07-13T05:54:18;18.02;;;11.25;;
79076;SDS011;68477;42.698;23.342;2023-07-13T05:56:43;16.35;;;9.60;;
79076;SDS011;68477;42.698;23.342;2023-07-13T05:59:09;15.02;;;9.43;;
79076;SDS011;68477;42.698;23.342;2023-07-13T06:01:34;16.13;;;9.50;;
79076;SDS011;68477;42.698;23.342;2023-07-13T06:04:00;16.25;;;8.98;;
79076;SDS011;68477;42.698;23.342;2023-07-13T06:06:25;16.10;;;10.18;;
79076;SDS011;68477;42.698;23.342;2023-07-13T06:08:51;14.48;;;9.63;;
79076;SDS011;68477;42.698;23.342;2023-07-13T06:11:21;15.57;;;8.88;;
79076;SDS011;68477;42.698;23.342;2023-07-13T06:13:48;15.50;;;9.68;;
79076;SDS011;68477;42.698;23.342;2023-07-13T06:16:14;19.17;;;8.15;;
79076;SDS011;68477;42.698;23.342;2023-07-13T06:18:40;13.40;;;8.43;;
79076;SDS011;68477;42.698;23.342;2023-07-13T06:21:17;13.40;;;9.52;;
79076;SDS011;68477;42.698;23.342;2023-07-13T06:23:45;16.95;;;10.10;;
79076;SDS011;68477;42.698;23.342;2023-07-13T06:26:14;13.40;;;8.85;;
79076;SDS011;68477;42.698;23.342;2023-07-13T06:28:39;19.35;;;9.77;;
79076;SDS011;68477;42.698;23.342;2023-07-13T06:31:08;16.42;;;9.65;;
79076;SDS011;68477;42.698;23.342;2023-07-13T06:33:36;15.63;;;9.27;;
79076;SDS011;68477;42.698;23.342;2023-07-13T06:36:02;16.95;;;10.30;;
79076;SDS011;68477;42.698;23.342;2023-07-13T06:38:29;18.35;;;10.00;;
79076;SDS011;68477;42.698;23.342;2023-07-13T06:40:55;17.77;;;9.80;;
79076;SDS011;68477;42.698;23.342;2023-07-13T06:43:20;20.27;;;11.13;;
79076;SDS011;68477;42.698;23.342;2023-07-13T06:45:46;19.60;;;9.95;;
79076;SDS011;68477;42.698;23.342;2023-07-13T06:50:39;17.08;;;9.23;;
79076;SDS011;68477;42.698;23.342;2023-07-13T06:53:06;13.18;;;8.88;;
79076;SDS011;68477;42.698;23.342;2023-07-13T06:55:31;16.95;;;9.13;;
79076;SDS011;68477;42.698;23.342;2023-07-13T06:57:58;14.00;;;8.73;;
79076;SDS011;68477;42.698;23.342;2023-07-13T07:00:24;15.38;;;9.43;;
79076;SDS011;68477;42.698;23.342;2023-07-13T07:02:49;19.10;;;8.38;;
79076;SDS011;68477;42.698;23.342;2023-07-13T07:05:14;11.75;;;8.10;;
79076;SDS011;68477;42.698;23.342;2023-07-13T07:07:40;18.55;;;7.93;;
79076;SDS011;68477;42.698;23.342;2023-07-13T07:10:06;14.48;;;8.80;;
79076;SDS011;68477;42.698;23.342;2023-07-13T07:12:32;14.45;;;8.43;;
79076;SDS011;68477;42.698;23.342;2023-07-13T07:14:57;13.32;;;8.88;;
79076;SDS011;68477;42.698;23.342;2023-07-13T07:17:23;19.35;;;9.32;;
79076;SDS011;68477;42.698;23.342;2023-07-13T07:19:51;13.93;;;8.40;;
79076;SDS011;68477;42.698;23.342;2023-07-13T07:22:18;22.52;;;9.02;;
79076;SDS011;68477;42.698;23.342;2023-07-13T07:24:44;26.33;;;9.55;;
79076;SDS011;68477;42.698;23.342;2023-07-13T07:27:10;16.23;;;9.15;;
79076;SDS011;68477;42.698;23.342;2023-07-13T07:29:35;14.55;;;9.05;;
79076;SDS011;68477;42.698;23.342;2023-07-13T07:32:01;13.02;;;8.38;;
79076;SDS011;68477;42.698;23.342;2023-07-13T07:34:26;11.68;;;8.30;;
79076;SDS011;68477;42.698;23.342;2023-07-13T07:36:52;16.05;;;8.05;;
79076;SDS011;68477;42.698;23.342;2023-07-13T07:39:19;17.45;;;9.90;;
79076;SDS011;68477;42.698;23.342;2023-07-13T07:41:44;13.20;;;8.52;;
79076;SDS011;68477;42.698;23.342;2023-07-13T07:44:10;14.55;;;7.80;;
79076;SDS011;68477;42.698;23.342;2023-07-13T07:46:35;12.73;;;7.75;;
79076;SDS011;68477;42.698;23.342;2023-07-13T07:49:01;18.45;;;8.32;;
79076;SDS011;68477;42.698;23.342;2023-07-13T07:51:27;12.27;;;7.95;;
79076;SDS011;68477;42.698;23.342;2023-07-13T07:53:53;12.82;;;7.57;;
79076;SDS011;68477;42.698;23.342;2023-07-13T07:56:19;13.80;;;8.18;;
79076;SDS011;68477;42.698;23.342;2023-07-13T07:58:45;13.18;;;8.00;;
79076;SDS011;68477;42.698;23.342;2023-07-13T08:01:10;13.85;;;8.07;;
79076;SDS011;68477;42.698;23.342;2023-07-13T08:03:35;15.70;;;8.10;;
79076;SDS011;68477;42.698;23.342;2023-07-13T08:06:01;11.88;;;8.15;;
79076;SDS011;68477;42.698;23.342;2023-07-13T08:08:30;11.75;;;7.72;;
79076;SDS011;68477;42.698;23.342;2023-07-13T08:10:55;13.77;;;7.65;;
79076;SDS011;68477;42.698;23.342;2023-07-13T08:13:21;9.85;;;7.07;;
79076;SDS011;68477;42.698;23.342;2023-07-13T08:15:46;13.90;;;7.45;;
79076;SDS011;68477;42.698;23.342;2023-07-13T08:18:12;12.30;;;8.15;;
79076;SDS011;68477;42.698;23.342;2023-07-13T08:20:40;10.65;;;7.38;;
79076;SDS011;68477;42.698;23.342;2023-07-13T08:23:07;14.02;;;7.38;;
79076;SDS011;68477;42.698;23.342;2023-07-13T08:25:35;13.98;;;7.25;;
79076;SDS011;68477;42.698;23.342;2023-07-13T08:28:02;13.52;;;7.78;;
79076;SDS011;68477;42.698;23.342;2023-07-13T08:30:28;12.02;;;7.82;;
79076;SDS011;68477;42.698;23.342;2023-07-13T08:32:53;14.27;;;7.82;;
79076;SDS011;68477;42.698;23.342;2023-07-13T08:35:19;11.00;;;7.45;;
79076;SDS011;68477;42.698;23.342;2023-07-13T08:37:44;12.05;;;7.10;;
79076;SDS011;68477;42.698;23.342;2023-07-13T08:40:10;16.65;;;7.13;;
79076;SDS011;68477;42.698;23.342;2023-07-13T08:42:42;17.33;;;7.95;;
79076;SDS011;68477;42.698;23.342;2023-07-13T08:48:18;13.20;;;8.27;;
79076;SDS011;68477;42.698;23.342;2023-07-13T08:50:51;18.05;;;8.80;;
79076;SDS011;68477;42.698;23.342;2023-07-13T08:53:38;18.20;;;8.50;;
79076;SDS011;68477;42.698;23.342;2023-07-13T08:56:20;23.30;;;8.73;;
79076;SDS011;68477;42.698;23.342;2023-07-13T08:58:49;13.60;;;7.53;;
79076;SDS011;68477;42.698;23.342;2023-07-13T09:03:56;15.77;;;7.55;;
79076;SDS011;68477;42.698;23.342;2023-07-13T09:06:27;14.63;;;7.32;;
79076;SDS011;68477;42.698;23.342;2023-07-13T09:09:20;13.13;;;7.18;;
79076;SDS011;68477;42.698;23.342;2023-07-13T09:12:00;10.25;;;7.63;;
79076;SDS011;68477;42.698;23.342;2023-07-13T09:17:19;18.90;;;10.23;;
79076;SDS011;68477;42.698;23.342;2023-07-13T09:19:46;16.15;;;8.52;;
79076;SDS011;68477;42.698;23.342;2023-07-13T09:22:19;17.27;;;8.40;;
79076;SDS011;68477;42.698;23.342;2023-07-13T09:24:52;11.65;;;7.60;;
79076;SDS011;68477;42.698;23.342;2023-07-13T09:27:23;17.67;;;7.60;;
79076;SDS011;68477;42.698;23.342;2023-07-13T09:30:02;15.05;;;7.85;;
79076;SDS011;68477;42.698;23.342;2023-07-13T09:32:33;15.68;;;7.47;;
79076;SDS011;68477;42.698;23.342;2023-07-13T09:34:59;17.38;;;8.27;;
79076;SDS011;68477;42.698;23.342;2023-07-13T09:37:28;10.77;;;7.57;;
79076;SDS011;68477;42.698;23.342;2023-07-13T09:39:57;13.27;;;7.93;;
79076;SDS011;68477;42.698;23.342;2023-07-13T09:44:52;14.52;;;7.95;;
79076;SDS011;68477;42.698;23.342;2023-07-13T09:49:53;11.52;;;7.45;;
79076;SDS011;68477;42.698;23.342;2023-07-13T09:52:21;15.48;;;7.22;;
79076;SDS011;68477;42.698;23.342;2023-07-13T09:54:48;13.85;;;6.95;;
79076;SDS011;68477;42.698;23.342;2023-07-13T09:57:18;12.55;;;7.20;;
79076;SDS011;68477;42.698;23.342;2023-07-13T09:59:48;12.70;;;7.13;;
79076;SDS011;68477;42.698;23.342;2023-07-13T10:05:06;11.38;;;6.90;;
79076;SDS011;68477;42.698;23.342;2023-07-13T10:07:41;13.93;;;7.20;;
79076;SDS011;68477;42.698;23.342;2023-07-13T10:10:16;13.85;;;7.18;;
79076;SDS011;68477;42.698;23.342;2023-07-13T10:12:44;14.55;;;6.75;;
79076;SDS011;68477;42.698;23.342;2023-07-13T10:15:30;13.70;;;7.53;;
79076;SDS011;68477;42.698;23.342;2023-07-13T10:17:56;12.68;;;6.88;;
79076;SDS011;68477;42.698;23.342;2023-07-13T10:20:23;9.05;;;6.18;;
79076;SDS011;68477;42.698;23.342;2023-07-13T10:25:37;10.48;;;4.50;;
79076;SDS011;68477;42.698;23.342;2023-07-13T10:28:11;9.30;;;4.97;;
79076;SDS011;68477;42.698;23.342;2023-07-13T10:30:52;7.00;;;4.32;;
79076;SDS011;68477;42.698;23.342;2023-07-13T10:33:20;7.53;;;4.63;;
79076;SDS011;68477;42.698;23.342;2023-07-13T10:38:20;8.77;;;5.03;;
79076;SDS011;68477;42.698;23.342;2023-07-13T10:43:29;9.50;;;4.68;;
79076;SDS011;68477;42.698;23.342;2023-07-13T10:46:07;7.75;;;4.30;;
79076;SDS011;68477;42.698;23.342;2023-07-13T10:48:35;9.15;;;4.55;;
79076;SDS011;68477;42.698;23.342;2023-07-13T10:51:03;11.80;;;4.70;;
79076;SDS011;68477;42.698;23.342;2023-07-13T10:53:33;9.60;;;4.80;;
79076;SDS011;68477;42.698;23.342;2023-07-13T10:56:04;9.13;;;3.90;;
79076;SDS011;68477;42.698;23.342;2023-07-13T10:58:44;6.88;;;4.22;;
79076;SDS011;68477;42.698;23.342;2023-07-13T11:01:12;9.73;;;4.30;;
79076;SDS011;68477;42.698;23.342;2023-07-13T11:06:13;7.35;;;4.60;;
79076;SDS011;68477;42.698;23.342;2023-07-13T11:12:49;11.93;;;4.47;;
79076;SDS011;68477;42.698;23.342;2023-07-13T11:15:13;8.77;;;4.57;;
79076;SDS011;68477;42.698;23.342;2023-07-13T11:17:49;12.77;;;4.97;;
79076;SDS011;68477;42.698;23.342;2023-07-13T11:23:07;7.05;;;4.20;;
79076;SDS011;68477;42.698;23.342;2023-07-13T11:25:38;7.30;;;4.57;;
79076;SDS011;68477;42.698;23.342;2023-07-13T11:30:36;8.95;;;5.22;;
79076;SDS011;68477;42.698;23.342;2023-07-13T11:38:42;10.50;;;5.03;;
79076;SDS011;68477;42.698;23.342;2023-07-13T11:43:55;9.35;;;4.60;;
79076;SDS011;68477;42.698;23.342;2023-07-13T11:46:27;10.75;;;4.57;;
79076;SDS011;68477;42.698;23.342;2023-07-13T11:48:53;9.63;;;4.45;;
79076;SDS011;68477;42.698;23.342;2023-07-13T11:51:23;6.43;;;4.43;;
79076;SDS011;68477;42.698;23.342;2023-07-13T11:53:53;8.23;;;4.63;;
79076;SDS011;68477;42.698;23.342;2023-07-13T11:56:20;9.73;;;4.82;;
79076;SDS011;68477;42.698;23.342;2023-07-13T11:58:48;6.35;;;4.25;;
79076;SDS011;68477;42.698;23.342;2023-07-13T12:01:26;7.60;;;4.13;;
79076;SDS011;68477;42.698;23.342;2023-07-13T12:03:57;11.15;;;5.07;;
79076;SDS011;68477;42.698;23.342;2023-07-13T12:06:29;8.65;;;4.75;;
79076;SDS011;68477;42.698;23.342;2023-07-13T12:08:57;12.35;;;5.20;;
79076;SDS011;68477;42.698;23.342;2023-07-13T12:11:28;10.00;;;4.82;;
79076;SDS011;68477;42.698;23.342;2023-07-13T12:13:53;12.25;;;5.60;;
79076;SDS011;68477;42.698;23.342;2023-07-13T12:18:54;11.43;;;4.68;;
79076;SDS011;68477;42.698;23.342;2023-07-13T12:23:52;13.02;;;5.18;;
79076;SDS011;68477;42.698;23.342;2023-07-13T12:26:18;7.88;;;4.95;;
79076;SDS011;68477;42.698;23.342;2023-07-13T12:28:48;7.68;;;4.60;;
79076;SDS011;68477;42.698;23.342;2023-07-13T12:34:11;9.50;;;5.10;;
79076;SDS011;68477;42.698;23.342;2023-07-13T12:36:41;11.20;;;5.47;;
79076;SDS011;68477;42.698;23.342;2023-07-13T12:41:46;11.45;;;5.05;;
79076;SDS011;68477;42.698;23.342;2023-07-13T12:46:58;11.52;;;4.30;;
79076;SDS011;68477;42.698;23.342;2023-07-13T12:49:30;9.65;;;4.20;;
79076;SDS011;68477;42.698;23.342;2023-07-13T12:52:00;10.10;;;4.70;;
79076;SDS011;68477;42.698;23.342;2023-07-13T12:54:28;19.67;;;5.05;;
79076;SDS011;68477;42.698;23.342;2023-07-13T12:56:55;14.50;;;5.32;;
79076;SDS011;68477;42.698;23.342;2023-07-13T12:59:23;11.32;;;4.72;;
79076;SDS011;68477;42.698;23.342;2023-07-13T13:01:53;9.73;;;4.22;;
79076;SDS011;68477;42.698;23.342;2023-07-13T13:04:18;5.95;;;4.32;;
79076;SDS011;68477;42.698;23.342;2023-07-13T13:06:46;9.02;;;4.43;;
79076;SDS011;68477;42.698;23.342;2023-07-13T13:09:13;17.30;;;7.82;;
79076;SDS011;68477;42.698;23.342;2023-07-13T13:11:41;8.65;;;4.28;;
79076;SDS011;68477;42.698;23.342;2023-07-13T13:14:08;12.23;;;4.18;;
79076;SDS011;68477;42.698;23.342;2023-07-13T13:19:10;14.32;;;5.05;;
79076;SDS011;68477;42.698;23.342;2023-07-13T13:21:39;9.10;;;4.40;;
79076;SDS011;68477;42.698;23.342;2023-07-13T13:24:11;11.00;;;5.03;;
79076;SDS011;68477;42.698;23.342;2023-07-13T13:26:38;12.70;;;4.65;;
79076;SDS011;68477;42.698;23.342;2023-07-13T13:29:12;13.32;;;4.40;;
79076;SDS011;68477;42.698;23.342;2023-07-13T13:31:39;12.73;;;4.70;;
79076;SDS011;68477;42.698;23.342;2023-07-13T13:34:07;9.35;;;4.97;;
79076;SDS011;68477;42.698;23.342;2023-07-13T13:36:34;9.88;;;4.68;;
79076;SDS011;68477;42.698;23.342;2023-07-13T13:39:00;15.68;;;5.40;;
79076;SDS011;68477;42.698;23.342;2023-07-13T13:41:27;12.43;;;4.55;;
79076;SDS011;68477;42.698;23.342;2023-07-13T13:43:52;9.73;;;4.68;;
79076;SDS011;68477;42.698;23.342;2023-07-13T13:46:18;11.90;;;6.07;;
79076;SDS011;68477;42.698;23.342;2023-07-13T13:48:50;10.73;;;5.22;;
79076;SDS011;68477;42.698;23.342;2023-07-13T13:51:19;13.20;;;4.72;;
79076;SDS011;68477;42.698;23.342;2023-07-13T13:53:47;9.55;;;4.07;;
79076;SDS011;68477;42.698;23.342;2023-07-13T13:56:13;7.78;;;4.20;;
79076;SDS011;68477;42.698;23.342;2023-07-13T13:58:40;8.82;;;4.00;;
79076;SDS011;68477;42.698;23.342;2023-07-13T14:01:13;10.90;;;4.97;;
79076;SDS011;68477;42.698;23.342;2023-07-13T14:03:41;9.63;;;4.20;;
79076;SDS011;68477;42.698;23.342;2023-07-13T14:06:09;10.15;;;4.53;;
79076;SDS011;68477;42.698;23.342;2023-07-13T14:08:37;11.65;;;4.47;;
79076;SDS011;68477;42.698;23.342;2023-07-13T14:11:02;8.15;;;4.60;;
79076;SDS011;68477;42.698;23.342;2023-07-13T14:13:31;8.50;;;4.13;;
79076;SDS011;68477;42.698;23.342;2023-07-13T14:16:01;6.93;;;3.85;;
79076;SDS011;68477;42.698;23.342;2023-07-13T14:18:28;11.18;;;4.60;;
79076;SDS011;68477;42.698;23.342;2023-07-13T14:20:53;12.18;;;4.30;;
79076;SDS011;68477;42.698;23.342;2023-07-13T14:23:19;13.93;;;7.72;;
79076;SDS011;68477;42.698;23.342;2023-07-13T14:25:45;10.82;;;5.35;;
79076;SDS011;68477;42.698;23.342;2023-07-13T14:30:42;8.13;;;4.25;;
79076;SDS011;68477;42.698;23.342;2023-07-13T14:33:08;11.07;;;4.13;;
79076;SDS011;68477;42.698;23.342;2023-07-13T14:35:36;9.63;;;4.40;;
79076;SDS011;68477;42.698;23.342;2023-07-13T14:38:03;18.55;;;4.20;;
79076;SDS011;68477;42.698;23.342;2023-07-13T14:40:29;8.50;;;4.18;;
79076;SDS011;68477;42.698;23.342;2023-07-13T14:42:56;11.05;;;4.00;;
79076;SDS011;68477;42.698;23.342;2023-07-13T14:45:22;8.98;;;4.22;;
79076;SDS011;68477;42.698;23.342;2023-07-13T14:47:48;8.52;;;4.72;;
79076;SDS011;68477;42.698;23.342;2023-07-13T14:50:14;9.35;;;4.40;;
79076;SDS011;68477;42.698;23.342;2023-07-13T14:52:41;10.95;;;4.72;;
79076;SDS011;68477;42.698;23.342;2023-07-13T14:55:12;7.88;;;4.45;;
79076;SDS011;68477;42.698;23.342;2023-07-13T14:57:38;10.95;;;5.10;;
79076;SDS011;68477;42.698;23.342;2023-07-13T15:00:04;11.98;;;4.95;;
79076;SDS011;68477;42.698;23.342;2023-07-13T15:02:51;7.88;;;4.40;;
79076;SDS011;68477;42.698;23.342;2023-07-13T15:05:22;12.27;;;5.07;;
79076;SDS011;68477;42.698;23.342;2023-07-13T15:07:51;10.35;;;4.32;;
79076;SDS011;68477;42.698;23.342;2023-07-13T15:12:44;11.02;;;4.90;;
79076;SDS011;68477;42.698;23.342;2023-07-13T15:15:10;12.32;;;5.43;;
79076;SDS011;68477;42.698;23.342;2023-07-13T15:17:38;8.13;;;4.53;;
79076;SDS011;68477;42.698;23.342;2023-07-13T15:20:32;8.65;;;4.18;;
79076;SDS011;68477;42.698;23.342;2023-07-13T15:23:00;9.50;;;4.40;;
79076;SDS011;68477;42.698;23.342;2023-07-13T15:25:27;8.95;;;5.03;;
79076;SDS011;68477;42.698;23.342;2023-07-13T15:27:56;11.73;;;4.75;;
79076;SDS011;68477;42.698;23.342;2023-07-13T15:30:22;9.40;;;4.43;;
79076;SDS011;68477;42.698;23.342;2023-07-13T15:32:52;8.57;;;4.45;;